sensor_id;sensor_type;location;lat;lon;timestamp;pressure;altitude;pressure_sealevel;temperature;humidity
64078;BME280;51039;49.696;10.808;2023-01-30T00:02:02;98828.25;;;-4.30;95.80
64078;BME280;51039;49.696;10.808;2023-01-30T00:04:27;98822.13;;;-4.29;95.88
64078;BME280;51039;49.696;10.808;2023-01-30T00:06:52;98826.38;;;-4.28;95.72
64078;BME280;51039;49.696;10.808;2023-01-30T00:09:18;98814.19;;;-4.26;95.60
64078;BME280;51039;49.696;10.808;2023-01-30T00:11:43;98827.53;;;-4.20;95.50
64078;BME280;51039;49.696;10.808;2023-01-30T00:14:08;98829.84;;;-4.15;95.69
64078;BME280;51039;49.696;10.808;2023-01-30T00:16:34;98828.41;;;-4.06;95.84
64078;BME280;51039;49.696;10.808;2023-01-30T00:18:59;98831.47;;;-4.00;95.53
64078;BME280;51039;49.696;10.808;2023-01-30T00:21:24;98834.06;;;-3.87;95.24
64078;BME280;51039;49.696;10.808;2023-01-30T00:23:50;98833.47;;;-3.78;94.91
64078;BME280;51039;49.696;10.808;2023-01-30T00:26:15;98846.75;;;-3.69;94.64
64078;BME280;51039;49.696;10.808;2023-01-30T00:28:40;98845.81;;;-3.68;94.00
64078;BME280;51039;49.696;10.808;2023-01-30T00:31:06;98859.06;;;-3.73;93.69
64078;BME280;51039;49.696;10.808;2023-01-30T00:33:32;98867.44;;;-3.82;93.33
64078;BME280;51039;49.696;10.808;2023-01-30T00:35:57;98871.16;;;-3.73;93.60
64078;BME280;51039;49.696;10.808;2023-01-30T00:38:25;98864.88;;;-3.69;93.13
64078;BME280;51039;49.696;10.808;2023-01-30T00:40:50;98865.69;;;-3.69;93.25
64078;BME280;51039;49.696;10.808;2023-01-30T00:43:17;98862.06;;;-3.66;93.43
64078;BME280;51039;49.696;10.808;2023-01-30T00:46:23;98866.84;;;-3.60;93.91
64078;BME280;51039;49.696;10.808;2023-01-30T00:49:12;98861.06;;;-3.51;94.21
64078;BME280;51039;49.696;10.808;2023-01-30T00:51:38;98858.59;;;-3.40;94.60
64078;BME280;51039;49.696;10.808;2023-01-30T00:54:03;98834.78;;;-3.32;94.59
64078;BME280;51039;49.696;10.808;2023-01-30T00:56:28;98825.44;;;-3.22;95.13
64078;BME280;51039;49.696;10.808;2023-01-30T00:58:53;98815.28;;;-3.12;94.86
64078;BME280;51039;49.696;10.808;2023-01-30T01:01:19;98812.06;;;-3.03;95.08
64078;BME280;51039;49.696;10.808;2023-01-30T01:03:44;98813.19;;;-2.94;94.70
64078;BME280;51039;49.696;10.808;2023-01-30T01:06:09;98805.00;;;-2.88;94.81
64078;BME280;51039;49.696;10.808;2023-01-30T01:08:35;98797.59;;;-2.81;94.70
64078;BME280;51039;49.696;10.808;2023-01-30T01:11:00;98807.56;;;-2.75;94.58
64078;BME280;51039;49.696;10.808;2023-01-30T01:13:25;98806.91;;;-2.66;94.96
64078;BME280;51039;49.696;10.808;2023-01-30T01:15:50;98791.03;;;-2.61;94.50
64078;BME280;51039;49.696;10.808;2023-01-30T01:18:16;98784.47;;;-2.54;94.60
64078;BME280;51039;49.696;10.808;2023-01-30T01:20:41;98774.69;;;-2.50;94.68
64078;BME280;51039;49.696;10.808;2023-01-30T01:23:08;98782.16;;;-2.46;94.80
64078;BME280;51039;49.696;10.808;2023-01-30T01:25:34;98775.09;;;-2.44;94.83
64078;BME280;51039;49.696;10.808;2023-01-30T01:27:59;98774.66;;;-2.38;95.04
64078;BME280;51039;49.696;10.808;2023-01-30T01:30:24;98768.41;;;-2.35;94.84
64078;BME280;51039;49.696;10.808;2023-01-30T01:32:50;98751.69;;;-2.31;94.90
64078;BME280;51039;49.696;10.808;2023-01-30T01:35:15;98753.22;;;-2.28;94.94
64078;BME280;51039;49.696;10.808;2023-01-30T01:37:40;98744.50;;;-2.27;95.13
64078;BME280;51039;49.696;10.808;2023-01-30T01:40:06;98760.69;;;-2.24;95.54
64078;BME280;51039;49.696;10.808;2023-01-30T01:42:50;98745.81;;;-2.22;96.01
64078;BME280;51039;49.696;10.808;2023-01-30T01:45:20;98737.31;;;-2.24;96.74
64078;BME280;51039;49.696;10.808;2023-01-30T01:50:26;98723.31;;;-2.21;97.22
64078;BME280;51039;49.696;10.808;2023-01-30T01:53:01;98720.81;;;-2.23;97.80
64078;BME280;51039;49.696;10.808;2023-01-30T01:55:27;98705.00;;;-2.20;97.82
64078;BME280;51039;49.696;10.808;2023-01-30T01:57:55;98697.94;;;-2.18;97.78
64078;BME280;51039;49.696;10.808;2023-01-30T02:00:27;98701.97;;;-2.13;97.72
64078;BME280;51039;49.696;10.808;2023-01-30T02:02:56;98707.03;;;-2.12;97.57
64078;BME280;51039;49.696;10.808;2023-01-30T02:05:24;98693.13;;;-2.11;97.87
64078;BME280;51039;49.696;10.808;2023-01-30T02:08:05;98686.16;;;-2.10;97.64
64078;BME280;51039;49.696;10.808;2023-01-30T02:13:16;98678.97;;;-2.07;98.14
64078;BME280;51039;49.696;10.808;2023-01-30T02:15:42;98658.22;;;-2.07;98.07
64078;BME280;51039;49.696;10.808;2023-01-30T02:18:07;98657.41;;;-2.07;98.26
64078;BME280;51039;49.696;10.808;2023-01-30T02:20:41;98660.47;;;-2.02;98.25
64078;BME280;51039;49.696;10.808;2023-01-30T02:24:24;98680.19;;;-2.00;97.82
64078;BME280;51039;49.696;10.808;2023-01-30T02:36:03;98675.03;;;-1.88;97.21
64078;BME280;51039;49.696;10.808;2023-01-30T02:49:12;98654.47;;;-1.80;97.33
64078;BME280;51039;49.696;10.808;2023-01-30T02:51:44;98642.22;;;-1.78;97.25
64078;BME280;51039;49.696;10.808;2023-01-30T02:54:14;98642.91;;;-1.76;96.69
64078;BME280;51039;49.696;10.808;2023-01-30T02:56:47;98636.53;;;-1.72;96.39
64078;BME280;51039;49.696;10.808;2023-01-30T02:59:17;98632.75;;;-1.68;96.04
64078;BME280;51039;49.696;10.808;2023-01-30T03:04:37;98620.25;;;-1.63;95.34
64078;BME280;51039;49.696;10.808;2023-01-30T03:10:01;98600.88;;;-1.59;94.91
64078;BME280;51039;49.696;10.808;2023-01-30T03:12:57;98590.50;;;-1.59;94.92
64078;BME280;51039;49.696;10.808;2023-01-30T03:15:48;98588.47;;;-1.55;94.77
64078;BME280;51039;49.696;10.808;2023-01-30T03:18:17;98593.31;;;-1.50;94.19
64078;BME280;51039;49.696;10.808;2023-01-30T03:20:44;98575.81;;;-1.48;94.11
64078;BME280;51039;49.696;10.808;2023-01-30T03:23:09;98571.22;;;-1.45;94.11
64078;BME280;51039;49.696;10.808;2023-01-30T03:25:36;98575.38;;;-1.42;94.48
64078;BME280;51039;49.696;10.808;2023-01-30T03:28:03;98578.41;;;-1.37;94.42
64078;BME280;51039;49.696;10.808;2023-01-30T03:30:29;98578.88;;;-1.32;94.05
64078;BME280;51039;49.696;10.808;2023-01-30T03:32:55;98584.88;;;-1.31;94.40
64078;BME280;51039;49.696;10.808;2023-01-30T03:35:20;98580.78;;;-1.34;94.74
64078;BME280;51039;49.696;10.808;2023-01-30T03:37:45;98587.47;;;-1.31;94.80
64078;BME280;51039;49.696;10.808;2023-01-30T03:40:12;98581.25;;;-1.29;94.89
64078;BME280;51039;49.696;10.808;2023-01-30T03:42:40;98581.25;;;-1.29;94.90
64078;BME280;51039;49.696;10.808;2023-01-30T03:45:06;98572.47;;;-1.28;95.29
64078;BME280;51039;49.696;10.808;2023-01-30T03:47:32;98576.75;;;-1.27;95.49
64078;BME280;51039;49.696;10.808;2023-01-30T03:49:57;98586.88;;;-1.24;95.12
64078;BME280;51039;49.696;10.808;2023-01-30T03:52:23;98574.59;;;-1.22;95.40
64078;BME280;51039;49.696;10.808;2023-01-30T03:54:48;98577.75;;;-1.18;95.16
64078;BME280;51039;49.696;10.808;2023-01-30T03:57:13;98573.66;;;-1.21;95.65
64078;BME280;51039;49.696;10.808;2023-01-30T03:59:39;98577.75;;;-1.18;95.57
64078;BME280;51039;49.696;10.808;2023-01-30T04:02:04;98574.81;;;-1.13;95.40
64078;BME280;51039;49.696;10.808;2023-01-30T04:04:30;98572.22;;;-1.13;95.21
64078;BME280;51039;49.696;10.808;2023-01-30T04:06:55;98569.34;;;-1.10;95.53
64078;BME280;51039;49.696;10.808;2023-01-30T04:09:20;98568.84;;;-1.04;95.29
64078;BME280;51039;49.696;10.808;2023-01-30T04:11:46;98574.41;;;-0.97;95.18
64078;BME280;51039;49.696;10.808;2023-01-30T04:14:12;98550.63;;;-0.93;94.71
64078;BME280;51039;49.696;10.808;2023-01-30T04:16:37;98559.00;;;-0.89;94.59
64078;BME280;51039;49.696;10.808;2023-01-30T04:19:03;98555.56;;;-0.90;94.96
64078;BME280;51039;49.696;10.808;2023-01-30T04:21:28;98552.00;;;-0.89;94.81
64078;BME280;51039;49.696;10.808;2023-01-30T04:23:53;98547.88;;;-0.91;94.69
64078;BME280;51039;49.696;10.808;2023-01-30T04:26:19;98549.28;;;-0.87;94.96
64078;BME280;51039;49.696;10.808;2023-01-30T04:28:44;98548.47;;;-0.88;95.12
64078;BME280;51039;49.696;10.808;2023-01-30T04:31:10;98550.94;;;-0.86;94.82
64078;BME280;51039;49.696;10.808;2023-01-30T04:33:35;98554.13;;;-0.83;94.44
64078;BME280;51039;49.696;10.808;2023-01-30T04:36:04;98526.34;;;-0.82;94.17
64078;BME280;51039;49.696;10.808;2023-01-30T04:38:31;98527.16;;;-0.82;94.04
64078;BME280;51039;49.696;10.808;2023-01-30T04:40:58;98538.38;;;-0.81;93.88
64078;BME280;51039;49.696;10.808;2023-01-30T04:43:24;98531.84;;;-0.75;93.45
64078;BME280;51039;49.696;10.808;2023-01-30T04:45:51;98525.00;;;-0.76;93.25
64078;BME280;51039;49.696;10.808;2023-01-30T04:48:17;98519.81;;;-0.76;93.67
64078;BME280;51039;49.696;10.808;2023-01-30T04:50:46;98527.72;;;-0.78;93.50
64078;BME280;51039;49.696;10.808;2023-01-30T04:53:13;98527.84;;;-0.80;93.53
64078;BME280;51039;49.696;10.808;2023-01-30T04:55:38;98518.25;;;-0.79;93.38
64078;BME280;51039;49.696;10.808;2023-01-30T04:58:03;98519.00;;;-0.77;93.54
64078;BME280;51039;49.696;10.808;2023-01-30T05:00:28;98522.53;;;-0.78;93.92
64078;BME280;51039;49.696;10.808;2023-01-30T05:02:54;98506.09;;;-0.78;95.07
64078;BME280;51039;49.696;10.808;2023-01-30T05:05:20;98508.50;;;-0.87;96.21
64078;BME280;51039;49.696;10.808;2023-01-30T05:07:46;98524.59;;;-0.93;96.86
64078;BME280;51039;49.696;10.808;2023-01-30T05:10:12;98521.88;;;-0.91;96.46
64078;BME280;51039;49.696;10.808;2023-01-30T05:12:37;98517.50;;;-0.91;96.50
64078;BME280;51039;49.696;10.808;2023-01-30T05:15:02;98515.88;;;-0.92;96.17
64078;BME280;51039;49.696;10.808;2023-01-30T05:17:28;98511.38;;;-0.90;95.41
64078;BME280;51039;49.696;10.808;2023-01-30T05:19:53;98501.78;;;-0.89;95.46
64078;BME280;51039;49.696;10.808;2023-01-30T05:22:19;98500.84;;;-0.88;95.55
64078;BME280;51039;49.696;10.808;2023-01-30T05:24:44;98497.28;;;-0.87;95.28
64078;BME280;51039;49.696;10.808;2023-01-30T05:27:09;98495.06;;;-0.92;95.71
64078;BME280;51039;49.696;10.808;2023-01-30T05:29:34;98482.19;;;-0.93;95.39
64078;BME280;51039;49.696;10.808;2023-01-30T05:32:00;98485.72;;;-0.94;95.81
64078;BME280;51039;49.696;10.808;2023-01-30T05:34:25;98487.16;;;-0.90;95.74
64078;BME280;51039;49.696;10.808;2023-01-30T05:36:50;98492.06;;;-0.87;95.12
64078;BME280;51039;49.696;10.808;2023-01-30T05:39:16;98487.56;;;-0.85;95.23
64078;BME280;51039;49.696;10.808;2023-01-30T05:41:41;98480.34;;;-0.82;95.00
64078;BME280;51039;49.696;10.808;2023-01-30T05:44:06;98478.19;;;-0.76;94.58
64078;BME280;51039;49.696;10.808;2023-01-30T05:46:32;98469.41;;;-0.75;94.83
64078;BME280;51039;49.696;10.808;2023-01-30T05:48:57;98467.50;;;-0.73;94.36
64078;BME280;51039;49.696;10.808;2023-01-30T05:51:23;98471.09;;;-0.74;94.46
64078;BME280;51039;49.696;10.808;2023-01-30T05:53:50;98471.38;;;-0.68;94.30
64078;BME280;51039;49.696;10.808;2023-01-30T05:56:16;98474.56;;;-0.64;94.27
64078;BME280;51039;49.696;10.808;2023-01-30T05:58:42;98480.72;;;-0.65;94.12
64078;BME280;51039;49.696;10.808;2023-01-30T06:01:09;98490.28;;;-0.66;94.17
64078;BME280;51039;49.696;10.808;2023-01-30T06:03:36;98490.84;;;-0.62;94.15
64078;BME280;51039;49.696;10.808;2023-01-30T06:06:03;98484.16;;;-0.65;94.46
64078;BME280;51039;49.696;10.808;2023-01-30T06:08:30;98493.22;;;-0.59;94.33
64078;BME280;51039;49.696;10.808;2023-01-30T06:10:59;98483.75;;;-0.60;94.29
64078;BME280;51039;49.696;10.808;2023-01-30T06:13:29;98483.50;;;-0.57;94.19
64078;BME280;51039;49.696;10.808;2023-01-30T06:15:54;98485.72;;;-0.52;93.79
64078;BME280;51039;49.696;10.808;2023-01-30T06:18:20;98485.72;;;-0.52;93.00
64078;BME280;51039;49.696;10.808;2023-01-30T06:20:46;98481.34;;;-0.52;93.15
64078;BME280;51039;49.696;10.808;2023-01-30T06:23:15;98478.31;;;-0.57;93.00
64078;BME280;51039;49.696;10.808;2023-01-30T06:25:45;98477.31;;;-0.56;93.42
64078;BME280;51039;49.696;10.808;2023-01-30T06:28:12;98494.72;;;-0.56;93.21
64078;BME280;51039;49.696;10.808;2023-01-30T06:30:38;98485.97;;;-0.55;93.38
64078;BME280;51039;49.696;10.808;2023-01-30T06:33:04;98487.03;;;-0.58;93.18
64078;BME280;51039;49.696;10.808;2023-01-30T06:35:30;98490.63;;;-0.59;93.42
64078;BME280;51039;49.696;10.808;2023-01-30T06:37:55;98483.91;;;-0.62;93.38
64078;BME280;51039;49.696;10.808;2023-01-30T06:40:20;98486.63;;;-0.63;93.26
64078;BME280;51039;49.696;10.808;2023-01-30T06:42:46;98483.19;;;-0.64;93.42
64078;BME280;51039;49.696;10.808;2023-01-30T06:45:16;98482.34;;;-0.64;93.34
64078;BME280;51039;49.696;10.808;2023-01-30T06:47:43;98478.38;;;-0.68;93.90
64078;BME280;51039;49.696;10.808;2023-01-30T06:50:13;98482.88;;;-0.70;94.00
64078;BME280;51039;49.696;10.808;2023-01-30T06:52:40;98472.72;;;-0.73;94.97
64078;BME280;51039;49.696;10.808;2023-01-30T06:55:07;98470.97;;;-0.73;95.06
64078;BME280;51039;49.696;10.808;2023-01-30T06:57:33;98468.22;;;-0.71;95.43
64078;BME280;51039;49.696;10.808;2023-01-30T06:59:59;98470.81;;;-0.71;95.39
64078;BME280;51039;49.696;10.808;2023-01-30T07:02:24;98457.97;;;-0.73;95.94
64078;BME280;51039;49.696;10.808;2023-01-30T07:04:49;98458.09;;;-0.74;96.04
64078;BME280;51039;49.696;10.808;2023-01-30T07:07:14;98450.97;;;-0.72;96.18
64078;BME280;51039;49.696;10.808;2023-01-30T07:09:40;98436.31;;;-0.73;95.82
64078;BME280;51039;49.696;10.808;2023-01-30T07:12:05;98438.66;;;-0.70;96.08
64078;BME280;51039;49.696;10.808;2023-01-30T07:14:30;98444.16;;;-0.64;95.65
64078;BME280;51039;49.696;10.808;2023-01-30T07:16:56;98436.63;;;-0.67;95.90
64078;BME280;51039;49.696;10.808;2023-01-30T07:19:21;98444.03;;;-0.62;95.81
64078;BME280;51039;49.696;10.808;2023-01-30T07:21:46;98425.13;;;-0.64;96.14
64078;BME280;51039;49.696;10.808;2023-01-30T07:24:11;98435.00;;;-0.58;96.76
64078;BME280;51039;49.696;10.808;2023-01-30T07:26:37;98421.63;;;-0.53;96.28
64078;BME280;51039;49.696;10.808;2023-01-30T07:29:02;98418.63;;;-0.49;96.04
64078;BME280;51039;49.696;10.808;2023-01-30T07:31:27;98418.09;;;-0.43;95.35
64078;BME280;51039;49.696;10.808;2023-01-30T07:33:53;98420.03;;;-0.35;94.57
64078;BME280;51039;49.696;10.808;2023-01-30T07:36:18;98430.31;;;-0.33;94.03
64078;BME280;51039;49.696;10.808;2023-01-30T07:38:43;98429.63;;;-0.35;94.17
64078;BME280;51039;49.696;10.808;2023-01-30T07:41:08;98428.81;;;-0.36;93.96
64078;BME280;51039;49.696;10.808;2023-01-30T07:43:34;98407.19;;;-0.36;93.73
64078;BME280;51039;49.696;10.808;2023-01-30T07:45:59;98405.66;;;-0.39;93.17
64078;BME280;51039;49.696;10.808;2023-01-30T07:48:24;98411.81;;;-0.40;93.58
64078;BME280;51039;49.696;10.808;2023-01-30T07:50:53;98416.06;;;-0.39;93.65
64078;BME280;51039;49.696;10.808;2023-01-30T07:53:20;98402.22;;;-0.40;93.39
64078;BME280;51039;49.696;10.808;2023-01-30T07:55:46;98403.88;;;-0.38;93.52
64078;BME280;51039;49.696;10.808;2023-01-30T07:58:14;98403.47;;;-0.34;93.44
64078;BME280;51039;49.696;10.808;2023-01-30T08:00:40;98401.69;;;-0.33;93.72
64078;BME280;51039;49.696;10.808;2023-01-30T08:03:09;98401.97;;;-0.36;93.44
64078;BME280;51039;49.696;10.808;2023-01-30T08:05:36;98396.78;;;-0.36;93.55
64078;BME280;51039;49.696;10.808;2023-01-30T08:08:01;98391.28;;;-0.33;93.50
64078;BME280;51039;49.696;10.808;2023-01-30T08:10:27;98412.66;;;-0.30;93.35
64078;BME280;51039;49.696;10.808;2023-01-30T08:12:52;98404.97;;;-0.31;93.75
64078;BME280;51039;49.696;10.808;2023-01-30T08:15:17;98386.75;;;-0.31;93.45
64078;BME280;51039;49.696;10.808;2023-01-30T08:17:43;98365.00;;;-0.30;93.71
64078;BME280;51039;49.696;10.808;2023-01-30T08:20:08;98387.75;;;-0.32;94.61
64078;BME280;51039;49.696;10.808;2023-01-30T08:22:34;98398.16;;;-0.32;94.56
64078;BME280;51039;49.696;10.808;2023-01-30T08:24:59;98400.06;;;-0.34;95.17
64078;BME280;51039;49.696;10.808;2023-01-30T08:27:25;98407.19;;;-0.36;95.85
64078;BME280;51039;49.696;10.808;2023-01-30T08:29:50;98401.13;;;-0.37;96.15
64078;BME280;51039;49.696;10.808;2023-01-30T08:32:15;98401.13;;;-0.37;97.00
64078;BME280;51039;49.696;10.808;2023-01-30T08:34:40;98391.13;;;-0.42;97.48
64078;BME280;51039;49.696;10.808;2023-01-30T08:37:06;98390.44;;;-0.44;97.83
64078;BME280;51039;49.696;10.808;2023-01-30T08:39:31;98396.75;;;-0.46;98.66
64078;BME280;51039;49.696;10.808;2023-01-30T08:41:56;98386.84;;;-0.52;99.26
64078;BME280;51039;49.696;10.808;2023-01-30T08:44:22;98377.13;;;-0.50;99.31
64078;BME280;51039;49.696;10.808;2023-01-30T08:46:47;98385.06;;;-0.52;99.64
64078;BME280;51039;49.696;10.808;2023-01-30T08:49:12;98380.81;;;-0.53;99.80
64078;BME280;51039;49.696;10.808;2023-01-30T08:51:38;98372.75;;;-0.50;100.00
64078;BME280;51039;49.696;10.808;2023-01-30T08:54:03;98368.94;;;-0.46;100.00
64078;BME280;51039;49.696;10.808;2023-01-30T08:56:31;98374.81;;;-0.44;100.00
64078;BME280;51039;49.696;10.808;2023-01-30T08:58:56;98376.31;;;-0.41;100.00
64078;BME280;51039;49.696;10.808;2023-01-30T09:01:22;98370.06;;;-0.38;99.94
64078;BME280;51039;49.696;10.808;2023-01-30T09:03:47;98375.94;;;-0.36;99.38
64078;BME280;51039;49.696;10.808;2023-01-30T09:06:12;98369.53;;;-0.32;99.47
64078;BME280;51039;49.696;10.808;2023-01-30T09:08:37;98359.78;;;-0.30;98.92
64078;BME280;51039;49.696;10.808;2023-01-30T09:11:03;98363.91;;;-0.28;98.38
64078;BME280;51039;49.696;10.808;2023-01-30T09:13:30;98366.63;;;-0.29;98.36
64078;BME280;51039;49.696;10.808;2023-01-30T09:15:56;98360.91;;;-0.23;97.93
64078;BME280;51039;49.696;10.808;2023-01-30T09:18:22;98362.53;;;-0.22;98.08
64078;BME280;51039;49.696;10.808;2023-01-30T09:20:48;98365.16;;;-0.22;97.76
64078;BME280;51039;49.696;10.808;2023-01-30T09:23:14;98358.84;;;-0.20;98.02
64078;BME280;51039;49.696;10.808;2023-01-30T09:25:39;98369.13;;;-0.18;97.93
64078;BME280;51039;49.696;10.808;2023-01-30T09:28:05;98354.31;;;-0.17;97.63
64078;BME280;51039;49.696;10.808;2023-01-30T09:30:31;98359.28;;;-0.14;97.65
64078;BME280;51039;49.696;10.808;2023-01-30T09:32:57;98351.47;;;-0.05;97.36
64078;BME280;51039;49.696;10.808;2023-01-30T09:35:22;98352.69;;;-0.09;97.14
64078;BME280;51039;49.696;10.808;2023-01-30T09:37:48;98360.94;;;-0.04;96.88
64078;BME280;51039;49.696;10.808;2023-01-30T09:40:28;98351.09;;;0.00;96.38
64078;BME280;51039;49.696;10.808;2023-01-30T09:48:30;98326.00;;;0.09;95.95
64078;BME280;51039;49.696;10.808;2023-01-30T09:56:35;98326.13;;;0.07;96.28
64078;BME280;51039;49.696;10.808;2023-01-30T09:59:01;98345.16;;;0.08;96.28
64078;BME280;51039;49.696;10.808;2023-01-30T10:04:24;98347.75;;;0.08;96.13
64078;BME280;51039;49.696;10.808;2023-01-30T10:07:04;98337.09;;;0.11;95.98
64078;BME280;51039;49.696;10.808;2023-01-30T10:09:51;98328.31;;;0.12;95.54
64078;BME280;51039;49.696;10.808;2023-01-30T10:26:26;98335.16;;;0.32;94.39
64078;BME280;51039;49.696;10.808;2023-01-30T10:28:54;98335.03;;;0.34;94.58
64078;BME280;51039;49.696;10.808;2023-01-30T10:31:21;98337.22;;;0.38;94.37
64078;BME280;51039;49.696;10.808;2023-01-30T10:34:03;98329.13;;;0.42;93.93
64078;BME280;51039;49.696;10.808;2023-01-30T10:36:51;98320.19;;;0.44;93.68
64078;BME280;51039;49.696;10.808;2023-01-30T10:42:11;98337.34;;;0.47;93.47
64078;BME280;51039;49.696;10.808;2023-01-30T10:44:38;98344.06;;;0.49;93.66
64078;BME280;51039;49.696;10.808;2023-01-30T10:47:11;98321.41;;;0.50;93.78
64078;BME280;51039;49.696;10.808;2023-01-30T10:52:44;98330.78;;;0.52;93.27
64078;BME280;51039;49.696;10.808;2023-01-30T10:55:47;98319.22;;;0.55;93.40
64078;BME280;51039;49.696;10.808;2023-01-30T11:01:15;98316.38;;;0.48;93.63
64078;BME280;51039;49.696;10.808;2023-01-30T11:03:56;98307.44;;;0.51;93.61
64078;BME280;51039;49.696;10.808;2023-01-30T11:06:27;98299.50;;;0.52;93.63
64078;BME280;51039;49.696;10.808;2023-01-30T11:08:54;98312.53;;;0.52;93.61
64078;BME280;51039;49.696;10.808;2023-01-30T11:13:48;98295.38;;;0.50;94.17
64078;BME280;51039;49.696;10.808;2023-01-30T11:16:14;98302.66;;;0.56;93.93
64078;BME280;51039;49.696;10.808;2023-01-30T11:18:43;98291.91;;;0.59;93.90
64078;BME280;51039;49.696;10.808;2023-01-30T11:21:27;98298.38;;;0.55;94.50
64078;BME280;51039;49.696;10.808;2023-01-30T11:23:54;98303.03;;;0.51;94.81
64078;BME280;51039;49.696;10.808;2023-01-30T11:26:22;98310.06;;;0.51;94.89
64078;BME280;51039;49.696;10.808;2023-01-30T11:28:49;98299.19;;;0.55;95.29
64078;BME280;51039;49.696;10.808;2023-01-30T11:31:18;98288.13;;;0.44;96.04
64078;BME280;51039;49.696;10.808;2023-01-30T11:33:57;98304.84;;;0.41;96.76
64078;BME280;51039;49.696;10.808;2023-01-30T11:36:28;98293.78;;;0.29;97.35
64078;BME280;51039;49.696;10.808;2023-01-30T11:41:29;98301.72;;;0.28;97.89
64078;BME280;51039;49.696;10.808;2023-01-30T11:43:59;98304.03;;;0.31;97.80
64078;BME280;51039;49.696;10.808;2023-01-30T11:46:27;98309.94;;;0.33;97.77
64078;BME280;51039;49.696;10.808;2023-01-30T11:49:02;98307.19;;;0.34;98.03
64078;BME280;51039;49.696;10.808;2023-01-30T11:51:33;98309.78;;;0.34;98.36
64078;BME280;51039;49.696;10.808;2023-01-30T11:54:07;98310.47;;;0.36;98.19
64078;BME280;51039;49.696;10.808;2023-01-30T11:56:52;98298.69;;;0.32;98.44
64078;BME280;51039;49.696;10.808;2023-01-30T12:04:58;98287.97;;;0.55;97.40
64078;BME280;51039;49.696;10.808;2023-01-30T12:07:27;98292.59;;;0.61;97.30
64078;BME280;51039;49.696;10.808;2023-01-30T12:09:55;98293.69;;;0.68;96.91
64078;BME280;51039;49.696;10.808;2023-01-30T12:12:42;98295.59;;;0.76;96.77
64078;BME280;51039;49.696;10.808;2023-01-30T12:15:23;98277.69;;;0.91;95.85
64078;BME280;51039;49.696;10.808;2023-01-30T12:28:26;98293.66;;;0.78;97.50
64078;BME280;51039;49.696;10.808;2023-01-30T12:31:07;98275.53;;;0.76;98.18
64078;BME280;51039;49.696;10.808;2023-01-30T12:33:43;98274.19;;;0.72;98.46
64078;BME280;51039;49.696;10.808;2023-01-30T12:36:15;98283.81;;;0.72;98.56
64078;BME280;51039;49.696;10.808;2023-01-30T12:47:23;98278.63;;;1.00;96.97
64078;BME280;51039;49.696;10.808;2023-01-30T12:49:55;98268.31;;;0.98;97.42
64078;BME280;51039;49.696;10.808;2023-01-30T12:52:53;98272.00;;;1.05;96.67
64078;BME280;51039;49.696;10.808;2023-01-30T12:55:25;98272.53;;;1.09;96.13
64078;BME280;51039;49.696;10.808;2023-01-30T13:03:29;98291.59;;;1.09;96.45
64078;BME280;51039;49.696;10.808;2023-01-30T13:11:25;98262.72;;;1.21;95.59
64078;BME280;51039;49.696;10.808;2023-01-30T13:14:18;98263.22;;;1.34;95.83
64078;BME280;51039;49.696;10.808;2023-01-30T13:28:12;98274.72;;;1.59;94.59
64078;BME280;51039;49.696;10.808;2023-01-30T13:30:41;98287.28;;;1.73;94.19
64078;BME280;51039;49.696;10.808;2023-01-30T13:33:48;98277.78;;;1.72;94.45
64078;BME280;51039;49.696;10.808;2023-01-30T13:41:38;98262.72;;;1.84;93.92
64078;BME280;51039;49.696;10.808;2023-01-30T13:44:48;98240.03;;;1.85;93.87
64078;BME280;51039;49.696;10.808;2023-01-30T13:46:58;98248.91;;;1.92;93.83
64078;BME280;51039;49.696;10.808;2023-01-30T13:50:08;98253.03;;;1.94;93.39
64078;BME280;51039;49.696;10.808;2023-01-30T13:55:33;98263.38;;;1.86;93.58
64078;BME280;51039;49.696;10.808;2023-01-30T14:00:54;98241.47;;;1.97;93.81
64078;BME280;51039;49.696;10.808;2023-01-30T14:03:24;98258.16;;;1.86;93.72
64078;BME280;51039;49.696;10.808;2023-01-30T14:09:16;98242.66;;;1.67;94.12
64078;BME280;51039;49.696;10.808;2023-01-30T14:14:25;98268.22;;;1.63;94.38
64078;BME280;51039;49.696;10.808;2023-01-30T14:16:55;98271.00;;;1.62;94.87
64078;BME280;51039;49.696;10.808;2023-01-30T14:19:41;98270.41;;;1.68;95.06
64078;BME280;51039;49.696;10.808;2023-01-30T14:24:53;98288.47;;;1.79;94.32
64078;BME280;51039;49.696;10.808;2023-01-30T14:27:49;98294.84;;;1.94;93.65
64078;BME280;51039;49.696;10.808;2023-01-30T14:40:43;98306.31;;;1.84;93.89
64078;BME280;51039;49.696;10.808;2023-01-30T14:45:53;98309.00;;;1.74;94.54
64078;BME280;51039;49.696;10.808;2023-01-30T14:59:46;98323.50;;;1.59;95.14
64078;BME280;51039;49.696;10.808;2023-01-30T15:27:09;98390.09;;;1.90;93.10
64078;BME280;51039;49.696;10.808;2023-01-30T15:32:28;98397.28;;;1.88;92.83
64078;BME280;51039;49.696;10.808;2023-01-30T15:34:56;98404.28;;;1.88;93.14
64078;BME280;51039;49.696;10.808;2023-01-30T15:37:58;98402.81;;;1.85;93.63
64078;BME280;51039;49.696;10.808;2023-01-30T15:40:22;98406.38;;;1.84;93.17
64078;BME280;51039;49.696;10.808;2023-01-30T15:51:14;98403.94;;;1.73;94.32
64078;BME280;51039;49.696;10.808;2023-01-30T15:53:44;98419.09;;;1.69;94.31
64078;BME280;51039;49.696;10.808;2023-01-30T15:56:24;98403.00;;;1.74;94.17
64078;BME280;51039;49.696;10.808;2023-01-30T15:58:52;98414.41;;;1.73;94.40
64078;BME280;51039;49.696;10.808;2023-01-30T16:01:21;98415.50;;;1.70;94.21
64078;BME280;51039;49.696;10.808;2023-01-30T16:03:48;98418.25;;;1.69;94.48
64078;BME280;51039;49.696;10.808;2023-01-30T16:08:58;98416.91;;;1.65;94.52
64078;BME280;51039;49.696;10.808;2023-01-30T16:11:32;98421.06;;;1.57;95.01
64078;BME280;51039;49.696;10.808;2023-01-30T16:13:58;98426.59;;;1.54;95.22
64078;BME280;51039;49.696;10.808;2023-01-30T16:16:24;98437.41;;;1.60;95.02
64078;BME280;51039;49.696;10.808;2023-01-30T16:18:54;98449.22;;;1.64;95.06
64078;BME280;51039;49.696;10.808;2023-01-30T16:21:25;98457.06;;;1.64;95.28
64078;BME280;51039;49.696;10.808;2023-01-30T16:26:34;98475.72;;;1.69;95.00
64078;BME280;51039;49.696;10.808;2023-01-30T16:29:04;98468.00;;;1.67;95.21